createdAt,value
2017-11-10T00:00:02.768Z,10.11
2017-11-10T00:02:28.936Z,10.13
2017-11-10T00:04:55.120Z,10.07
2017-11-10T00:07:21.323Z,9.99
2017-11-10T00:09:47.483Z,9.90
2017-11-10T00:12:13.630Z,9.85
2017-11-10T00:14:39.819Z,9.83
2017-11-10T00:17:05.981Z,9.82
2017-11-10T00:19:32.155Z,9.82
2017-11-10T00:21:58.427Z,9.81
2017-11-10T00:24:24.598Z,9.78
2017-11-10T00:26:50.776Z,9.78
2017-11-10T00:29:16.985Z,9.84
2017-11-10T00:31:43.161Z,9.87
2017-11-10T00:34:09.404Z,9.96
2017-11-10T00:36:35.670Z,9.94
2017-11-10T00:39:01.907Z,9.85
2017-11-10T00:41:28.284Z,9.84
2017-11-10T00:43:54.585Z,9.92
2017-11-10T00:46:20.824Z,9.94
2017-11-10T00:48:47.050Z,9.96
2017-11-10T00:51:13.330Z,10.01
2017-11-10T00:53:39.565Z,10.04
2017-11-10T00:56:05.805Z,10.09
2017-11-10T00:58:32.074Z,10.12
2017-11-10T01:00:58.332Z,10.16
2017-11-10T01:03:24.568Z,10.16
2017-11-10T01:05:50.840Z,10.12
2017-11-10T01:08:17.046Z,10.12
2017-11-10T01:10:43.289Z,10.16
2017-11-10T01:13:09.590Z,10.18
2017-11-10T01:15:35.842Z,10.07
2017-11-10T01:18:02.088Z,10.00
2017-11-10T01:20:28.382Z,10.04
2017-11-10T01:22:54.612Z,9.99
2017-11-10T01:25:20.843Z,9.97
2017-11-10T01:27:47.091Z,10.04
2017-11-10T01:30:13.312Z,10.13
2017-11-10T01:32:39.559Z,10.14
2017-11-10T01:35:05.850Z,10.12
2017-11-10T01:37:32.080Z,10.08
2017-11-10T01:39:58.327Z,9.98
2017-11-10T01:42:24.828Z,9.99
2017-11-10T01:44:51.060Z,9.96
2017-11-10T01:47:17.292Z,9.92
2017-11-10T01:49:43.587Z,9.86
2017-11-10T01:52:09.816Z,9.91
2017-11-10T01:54:36.049Z,9.96
2017-11-10T01:57:02.341Z,9.99
2017-11-10T01:59:28.584Z,9.98
2017-11-10T02:01:54.867Z,9.94
2017-11-10T02:04:21.141Z,9.99
2017-11-10T02:06:47.372Z,10.06
2017-11-10T02:09:13.636Z,10.09
2017-11-10T02:11:40.140Z,10.13
2017-11-10T02:14:06.424Z,10.16
2017-11-10T02:16:32.685Z,10.20
2017-11-10T02:18:58.994Z,10.17
2017-11-10T02:21:25.307Z,10.19
2017-11-10T02:23:51.530Z,10.22
2017-11-10T02:26:17.822Z,10.20
2017-11-10T02:28:44.057Z,10.17
2017-11-10T02:31:10.282Z,10.15
2017-11-10T02:33:36.639Z,10.11
2017-11-10T02:36:02.894Z,10.09
2017-11-10T02:38:29.135Z,10.12
2017-11-10T02:40:55.401Z,10.13
2017-11-10T02:43:21.625Z,10.13
2017-11-10T02:45:47.858Z,10.09
2017-11-10T02:48:14.130Z,10.15
2017-11-10T02:50:40.364Z,10.13
2017-11-10T02:53:06.610Z,10.15
2017-11-10T02:55:32.891Z,10.11
2017-11-10T02:57:59.141Z,10.10
2017-11-10T03:00:25.585Z,10.09
2017-11-10T03:02:51.878Z,10.07
2017-11-10T03:05:18.117Z,10.09
2017-11-10T03:07:44.338Z,10.15
2017-11-10T03:10:10.622Z,10.18
2017-11-10T03:12:36.856Z,10.14
2017-11-10T03:15:03.112Z,10.11
2017-11-10T03:17:29.413Z,10.12
2017-11-10T03:19:55.641Z,10.17
2017-11-10T03:22:21.877Z,10.21
2017-11-10T03:24:48.161Z,10.29
2017-11-10T03:27:14.401Z,10.29
2017-11-10T03:29:40.630Z,10.25
2017-11-10T03:32:06.893Z,10.22
2017-11-10T03:34:33.135Z,10.16
2017-11-10T03:36:59.364Z,10.17
2017-11-10T03:39:25.643Z,10.20
2017-11-10T03:41:51.898Z,10.22
2017-11-10T03:44:18.146Z,10.27
2017-11-10T03:46:44.415Z,10.33
2017-11-10T03:49:10.644Z,10.33
2017-11-10T03:51:37.178Z,10.33
2017-11-10T03:54:03.463Z,10.23
2017-11-10T03:56:29.714Z,10.21
2017-11-10T03:58:56.097Z,10.19
2017-11-10T04:01:22.410Z,10.20
2017-11-10T04:03:48.647Z,10.20
2017-11-10T04:06:14.892Z,10.17
2017-11-10T04:08:41.389Z,10.16
2017-11-10T04:11:07.831Z,10.21
2017-11-10T04:13:34.485Z,10.22
2017-11-10T04:16:01.093Z,10.18
2017-11-10T04:18:27.538Z,10.17
2017-11-10T04:20:53.802Z,10.20
2017-11-10T04:23:20.045Z,10.24
2017-11-10T04:25:46.285Z,10.30
2017-11-10T04:28:12.585Z,10.29
2017-11-10T04:30:38.812Z,10.29
2017-11-10T04:33:05.034Z,10.31
2017-11-10T04:35:31.301Z,10.33
2017-11-10T04:37:57.533Z,10.34
2017-11-10T04:40:23.785Z,10.34
2017-11-10T04:42:50.069Z,10.30
2017-11-10T04:45:16.482Z,10.31
2017-11-10T04:47:42.739Z,10.31
2017-11-10T04:50:09.017Z,10.34
2017-11-10T04:52:35.581Z,10.37
2017-11-10T04:55:02.076Z,10.35
2017-11-10T04:57:28.620Z,10.33
2017-11-10T04:59:55.040Z,10.32
2017-11-10T05:02:21.483Z,10.27
2017-11-10T05:04:47.973Z,10.23
2017-11-10T05:07:14.589Z,10.23
2017-11-10T05:09:41.119Z,10.24
2017-11-10T05:12:07.663Z,10.29
2017-11-10T05:14:34.097Z,10.30
2017-11-10T05:17:00.723Z,10.31
2017-11-10T05:19:27.218Z,10.31
2017-11-10T05:21:53.591Z,10.32
2017-11-10T05:24:20.081Z,10.29
2017-11-10T05:26:46.467Z,10.24
2017-11-10T05:29:12.697Z,10.21
2017-11-10T05:31:39.153Z,10.17
2017-11-10T05:34:05.777Z,10.26
2017-11-10T05:36:32.212Z,10.32
2017-11-10T05:38:58.839Z,10.36
2017-11-10T05:41:25.100Z,10.39
2017-11-10T05:43:51.487Z,10.43
2017-11-10T05:46:18.138Z,10.48
2017-11-10T05:48:44.467Z,10.45
2017-11-10T05:51:10.716Z,10.53
2017-11-10T05:53:36.977Z,10.48
2017-11-10T05:56:03.203Z,10.60
2017-11-10T05:58:29.676Z,10.78
2017-11-10T06:00:55.940Z,10.86
2017-11-10T06:03:22.559Z,10.96
2017-11-10T06:05:48.905Z,11.39
2017-11-10T06:08:15.209Z,11.56
2017-11-10T06:10:41.469Z,11.57
2017-11-10T06:13:07.699Z,11.77
2017-11-10T06:15:33.967Z,11.89
2017-11-10T06:18:00.217Z,11.91
2017-11-10T06:20:26.565Z,11.85
2017-11-10T06:22:52.844Z,11.96
2017-11-10T06:25:19.092Z,12.02
2017-11-10T06:27:45.345Z,11.95
2017-11-10T06:30:11.647Z,11.92
2017-11-10T06:32:37.888Z,11.75
2017-11-10T06:35:04.129Z,11.56
2017-11-10T06:37:30.409Z,11.54
2017-11-10T06:39:56.653Z,11.54
2017-11-10T06:42:22.874Z,11.58
2017-11-10T06:44:49.135Z,11.64
2017-11-10T06:47:15.352Z,11.64
2017-11-10T06:49:41.618Z,11.68
2017-11-10T06:52:07.880Z,11.76
2017-11-10T06:54:34.128Z,11.94
2017-11-10T06:57:00.407Z,12.03
2017-11-10T06:59:26.689Z,12.09
2017-11-10T07:01:52.926Z,12.20
2017-11-10T07:04:19.146Z,12.20
2017-11-10T07:06:45.425Z,12.23
2017-11-10T07:09:11.666Z,12.28
2017-11-10T07:11:37.914Z,12.36
2017-11-10T07:14:04.189Z,12.43
2017-11-10T07:16:30.432Z,12.50
2017-11-10T07:18:56.656Z,12.64
2017-11-10T07:21:23.085Z,12.69
2017-11-10T07:23:49.315Z,12.59
2017-11-10T07:26:15.570Z,12.67
2017-11-10T07:28:41.859Z,12.79
2017-11-10T07:31:08.201Z,12.91
2017-11-10T07:33:34.432Z,12.92
2017-11-10T07:36:00.705Z,13.06
2017-11-10T07:38:26.963Z,13.17
2017-11-10T07:40:53.194Z,13.31
2017-11-10T07:43:19.467Z,13.41
2017-11-10T07:45:45.697Z,13.50
2017-11-10T07:48:11.934Z,13.67
2017-11-10T07:50:38.193Z,13.52
2017-11-10T07:53:04.440Z,13.58
2017-11-10T07:55:30.685Z,13.57
2017-11-10T07:57:56.970Z,13.76
2017-11-10T08:00:23.213Z,14.01
2017-11-10T08:02:49.444Z,14.16
2017-11-10T08:05:15.737Z,14.34
2017-11-10T08:07:42.026Z,14.48
2017-11-10T08:10:08.298Z,14.55
2017-11-10T08:12:34.568Z,14.74
2017-11-10T08:15:00.928Z,14.87
2017-11-10T08:17:27.154Z,14.93
2017-11-10T08:19:53.418Z,15.05
2017-11-10T08:22:19.685Z,15.11
2017-11-10T08:24:45.914Z,15.22
2017-11-10T08:27:12.194Z,15.31
2017-11-10T08:29:38.436Z,15.41
2017-11-10T08:32:04.679Z,15.46
2017-11-10T08:34:30.949Z,15.47
2017-11-10T08:36:57.172Z,15.35
2017-11-10T08:39:23.422Z,15.16
2017-11-10T08:41:49.714Z,15.10
2017-11-10T08:44:15.942Z,15.05
2017-11-10T08:46:42.172Z,15.20
2017-11-10T08:49:08.445Z,15.28
2017-11-10T08:51:34.677Z,15.42
2017-11-10T08:54:00.921Z,15.51
2017-11-10T08:56:27.215Z,15.26
2017-11-10T08:58:53.444Z,15.16
2017-11-10T09:01:19.677Z,15.11
2017-11-10T09:03:45.966Z,15.17
2017-11-10T09:06:12.187Z,14.95
2017-11-10T09:08:38.425Z,15.15
2017-11-10T09:11:04.688Z,15.37
2017-11-10T09:13:30.901Z,15.51
2017-11-10T09:15:57.300Z,15.61
2017-11-10T09:18:23.582Z,15.66
2017-11-10T09:20:49.825Z,15.81
2017-11-10T09:23:16.070Z,16.03
2017-11-10T09:25:42.372Z,15.62
2017-11-10T09:28:08.619Z,15.99
2017-11-10T09:30:34.849Z,16.16
2017-11-10T09:33:01.127Z,16.27
2017-11-10T09:35:27.371Z,16.58
2017-11-10T09:37:53.603Z,16.73
2017-11-10T09:40:19.886Z,16.86
2017-11-10T09:42:46.207Z,16.88
2017-11-10T09:45:12.453Z,17.06
2017-11-10T09:47:38.737Z,17.12
2017-11-10T09:50:05.096Z,17.05
2017-11-10T09:52:31.333Z,17.13
2017-11-10T09:54:57.606Z,17.27
2017-11-10T09:57:23.828Z,17.23
2017-11-10T09:59:50.066Z,17.21
2017-11-10T10:02:16.444Z,17.29
2017-11-10T10:04:42.688Z,17.42
2017-11-10T10:07:08.926Z,17.46
2017-11-10T10:09:35.196Z,17.62
2017-11-10T10:12:01.447Z,17.73
2017-11-10T10:14:27.694Z,17.37
2017-11-10T10:16:53.980Z,17.35
2017-11-10T10:19:20.227Z,17.42
2017-11-10T10:21:46.445Z,17.06
2017-11-10T10:24:12.729Z,16.95
2017-11-10T10:26:38.960Z,17.02
2017-11-10T10:29:05.209Z,16.82
2017-11-10T10:31:31.468Z,16.88
2017-11-10T10:33:57.708Z,16.90
2017-11-10T10:36:23.931Z,16.85
2017-11-10T10:38:50.208Z,17.11
2017-11-10T10:41:16.457Z,17.08
2017-11-10T10:43:42.683Z,17.40
2017-11-10T10:46:08.970Z,17.39
2017-11-10T10:48:35.207Z,17.69
2017-11-10T10:51:01.454Z,17.81
2017-11-10T10:53:27.780Z,18.04
2017-11-10T10:55:54.022Z,18.05
2017-11-10T10:58:20.271Z,18.00
2017-11-10T11:00:46.546Z,17.67
2017-11-10T11:03:12.787Z,17.89
2017-11-10T11:05:39.007Z,17.92
2017-11-10T11:08:05.299Z,17.92
2017-11-10T11:10:31.540Z,17.97
2017-11-10T11:12:57.786Z,17.95
2017-11-10T11:15:24.061Z,18.02
2017-11-10T11:17:50.308Z,17.94
2017-11-10T11:20:16.554Z,18.06
2017-11-10T11:22:42.841Z,18.26
2017-11-10T11:25:09.082Z,18.77
2017-11-10T11:27:35.343Z,18.87
2017-11-10T11:30:01.628Z,18.34
2017-11-10T11:32:27.852Z,18.44
2017-11-10T11:34:54.067Z,18.07
2017-11-10T11:37:20.327Z,17.59
2017-11-10T11:39:46.582Z,17.92
2017-11-10T11:42:12.849Z,17.49
2017-11-10T11:44:39.148Z,18.00
2017-11-10T11:47:05.689Z,18.04
2017-11-10T11:49:31.940Z,17.93
2017-11-10T11:51:58.231Z,18.04
2017-11-10T11:54:24.465Z,18.13
2017-11-10T11:56:50.841Z,17.76
2017-11-10T11:59:17.121Z,18.02
2017-11-10T12:01:43.362Z,18.05
2017-11-10T12:04:09.609Z,18.08
2017-11-10T12:06:35.880Z,18.43
2017-11-10T12:09:02.199Z,18.80
2017-11-10T12:11:28.430Z,19.09
2017-11-10T12:13:54.706Z,20.08
2017-11-10T12:16:21.056Z,20.22
2017-11-10T12:18:47.301Z,22.39
2017-11-10T12:21:13.573Z,22.45
2017-11-10T12:23:39.811Z,21.65
2017-11-10T12:26:06.029Z,22.17
2017-11-10T12:28:32.305Z,21.18
2017-11-10T12:30:58.523Z,20.29
2017-11-10T12:33:24.786Z,20.39
2017-11-10T12:35:51.055Z,20.56
2017-11-10T12:38:17.285Z,20.77
2017-11-10T12:40:43.517Z,20.35
2017-11-10T12:43:09.789Z,21.15
2017-11-10T12:45:36.017Z,22.34
2017-11-10T12:48:02.247Z,22.91
2017-11-10T12:50:28.513Z,22.95
2017-11-10T12:52:54.741Z,23.27
2017-11-10T12:55:20.966Z,22.47
2017-11-10T12:57:47.249Z,22.06
2017-11-10T13:00:13.496Z,21.40
2017-11-10T13:02:39.721Z,20.54
2017-11-10T13:05:06.022Z,20.51
2017-11-10T13:07:32.263Z,20.50
2017-11-10T13:09:58.500Z,20.73
2017-11-10T13:12:24.805Z,20.97
2017-11-10T13:14:51.059Z,21.17
2017-11-10T13:17:17.394Z,21.82
2017-11-10T13:19:43.830Z,22.33
2017-11-10T13:22:10.065Z,22.80
2017-11-10T13:24:36.309Z,22.69
2017-11-10T13:27:02.575Z,22.15
2017-11-10T13:29:28.831Z,21.93
2017-11-10T13:31:55.086Z,21.56
2017-11-10T13:34:21.357Z,20.43
2017-11-10T13:36:47.584Z,19.58
2017-11-10T13:39:13.821Z,18.98
2017-11-10T13:41:40.108Z,18.73
2017-11-10T13:44:06.340Z,18.56
2017-11-10T13:46:32.568Z,18.07
2017-11-10T13:48:58.851Z,17.62
2017-11-10T13:51:25.086Z,17.64
2017-11-10T13:53:51.312Z,17.65
2017-11-10T13:56:17.581Z,17.15
2017-11-10T13:58:43.808Z,16.88
2017-11-10T14:01:10.034Z,16.91
2017-11-10T14:03:36.295Z,16.87
2017-11-10T14:06:02.541Z,16.89
2017-11-10T14:08:28.781Z,16.85
2017-11-10T14:10:55.048Z,16.67
2017-11-10T14:13:21.289Z,16.38
2017-11-10T14:15:47.527Z,16.35
2017-11-10T14:18:13.804Z,16.24
2017-11-10T14:20:40.223Z,16.13
2017-11-10T14:23:06.467Z,15.94
2017-11-10T14:25:32.834Z,15.62
2017-11-10T14:27:59.068Z,15.62
2017-11-10T14:30:25.310Z,15.47
2017-11-10T14:32:51.581Z,15.34
2017-11-10T14:35:17.799Z,15.24
2017-11-10T14:37:44.168Z,15.09
2017-11-10T14:40:10.438Z,15.02
2017-11-10T14:42:36.679Z,15.02
2017-11-10T14:45:02.922Z,14.97
2017-11-10T14:47:29.206Z,14.91
2017-11-10T14:49:55.440Z,14.88
2017-11-10T14:52:21.661Z,14.87
2017-11-10T14:54:47.954Z,14.85
2017-11-10T14:57:14.182Z,14.72
2017-11-10T14:59:40.411Z,14.54
2017-11-10T15:02:06.681Z,14.32
2017-11-10T15:04:32.973Z,14.20
2017-11-10T15:06:59.226Z,14.12
2017-11-10T15:09:25.470Z,13.93
2017-11-10T15:11:52.099Z,13.93
2017-11-10T15:14:18.346Z,13.93
2017-11-10T15:16:44.730Z,13.91
2017-11-10T15:19:11.180Z,13.81
2017-11-10T15:21:37.389Z,13.70
2017-11-10T15:24:03.624Z,13.68
2017-11-10T15:26:29.907Z,13.55
2017-11-10T15:28:56.128Z,13.55
2017-11-10T15:31:22.381Z,13.53
2017-11-10T15:33:48.666Z,13.43
2017-11-10T15:36:14.916Z,13.34
2017-11-10T15:38:41.145Z,13.30
2017-11-10T15:41:07.454Z,13.15
2017-11-10T15:43:33.781Z,13.00
2017-11-10T15:46:00.024Z,12.94
2017-11-10T15:48:26.288Z,12.87
2017-11-10T15:50:52.514Z,12.76
2017-11-10T15:53:18.752Z,12.69
2017-11-10T15:55:45.064Z,12.57
2017-11-10T15:58:11.306Z,12.46
2017-11-10T16:00:37.549Z,12.27
2017-11-10T16:03:03.807Z,12.04
2017-11-10T16:05:30.025Z,11.85
2017-11-10T16:07:56.269Z,11.72
2017-11-10T16:10:22.549Z,11.68
2017-11-10T16:12:48.778Z,11.54
2017-11-10T16:15:15.007Z,11.30
2017-11-10T16:17:41.314Z,11.26
2017-11-10T16:20:07.551Z,11.20
2017-11-10T16:22:33.782Z,11.18
2017-11-10T16:25:00.059Z,11.08
2017-11-10T16:27:26.498Z,10.90
2017-11-10T16:29:52.945Z,10.87
2017-11-10T16:32:19.262Z,10.88
2017-11-10T16:34:45.509Z,10.84
2017-11-10T16:37:11.723Z,10.82
2017-11-10T16:39:37.987Z,10.73
2017-11-10T16:42:04.205Z,10.64
2017-11-10T16:44:30.414Z,10.56
2017-11-10T16:46:56.683Z,10.49
2017-11-10T16:49:22.923Z,10.65
2017-11-10T16:51:49.145Z,10.64
2017-11-10T16:54:15.476Z,10.44
2017-11-10T16:56:41.726Z,10.38
2017-11-10T16:59:07.929Z,10.46
2017-11-10T17:01:34.170Z,10.47
2017-11-10T17:04:00.383Z,10.23
2017-11-10T17:06:26.736Z,10.05
2017-11-10T17:08:53.145Z,10.48
2017-11-10T17:11:19.417Z,10.61
2017-11-10T17:13:45.672Z,10.73
2017-11-10T17:16:11.927Z,10.58
2017-11-10T17:18:38.156Z,10.48
2017-11-10T17:21:04.365Z,10.52
2017-11-10T17:23:30.597Z,10.62
2017-11-10T17:25:56.856Z,10.61
2017-11-10T17:28:23.073Z,10.34
2017-11-10T17:30:49.280Z,10.56
2017-11-10T17:33:15.568Z,10.43
2017-11-10T17:35:41.790Z,10.20
2017-11-10T17:38:08.015Z,10.13
2017-11-10T17:40:34.392Z,9.98
2017-11-10T17:43:01.028Z,9.74
2017-11-10T17:45:27.537Z,9.57
2017-11-10T17:47:54.052Z,9.44
2017-11-10T17:50:20.498Z,9.41
2017-11-10T17:52:46.955Z,9.36
2017-11-10T17:55:13.448Z,9.33
2017-11-10T17:57:40.041Z,9.51
2017-11-10T18:00:06.311Z,9.41
2017-11-10T18:02:32.909Z,9.47
2017-11-10T18:04:59.133Z,9.28
2017-11-10T18:07:25.563Z,9.05
2017-11-10T18:09:52.078Z,9.00
2017-11-10T18:12:19.238Z,8.97
2017-11-10T18:14:45.500Z,8.98
2017-11-10T18:17:11.782Z,8.98
2017-11-10T18:19:40.082Z,9.06
2017-11-10T18:22:06.318Z,8.86
2017-11-10T18:24:32.593Z,8.77
2017-11-10T18:26:58.876Z,8.70
2017-11-10T18:29:26.354Z,8.62
2017-11-10T18:31:52.664Z,8.46
2017-11-10T18:34:18.930Z,8.38
2017-11-10T18:36:45.155Z,8.60
2017-11-10T18:39:11.429Z,8.65
2017-11-10T18:41:37.735Z,8.45
2017-11-10T18:49:07.791Z,8.36
2017-11-10T18:51:34.098Z,8.44
2017-11-10T18:54:00.335Z,8.31
2017-11-10T18:56:26.621Z,8.20
2017-11-10T18:58:52.869Z,8.13
2017-11-10T19:01:19.115Z,8.17
2017-11-10T19:03:45.427Z,8.10
2017-11-10T19:06:11.689Z,8.19
2017-11-10T19:08:38.292Z,8.25
2017-11-10T19:11:04.570Z,8.17
2017-11-10T19:13:30.796Z,8.16
2017-11-10T19:15:57.037Z,8.19
2017-11-10T19:18:23.357Z,8.12
2017-11-10T19:20:49.706Z,8.05
2017-11-10T19:23:15.968Z,8.12
2017-11-10T19:25:42.281Z,8.15
2017-11-10T19:28:08.507Z,8.07
2017-11-10T19:30:34.758Z,8.02
2017-11-10T19:33:01.052Z,7.95
2017-11-10T19:35:27.316Z,7.81
2017-11-10T19:40:47.071Z,7.66
2017-11-10T19:43:13.292Z,7.50
2017-11-10T19:45:39.524Z,7.57
2017-11-10T19:48:05.810Z,7.57
2017-11-10T19:50:32.045Z,7.43
2017-11-10T19:52:58.288Z,7.41
2017-11-10T19:55:24.565Z,7.36
2017-11-10T19:57:50.805Z,7.27
2017-11-10T20:00:17.073Z,7.25
2017-11-10T20:02:43.360Z,7.25
2017-11-10T20:05:09.613Z,7.19
2017-11-10T20:07:35.845Z,7.09
2017-11-10T20:10:02.123Z,7.14
2017-11-10T20:12:28.349Z,7.28
2017-11-10T20:14:54.564Z,7.20
2017-11-10T20:17:20.850Z,7.19
2017-11-10T20:19:47.074Z,7.19
2017-11-10T20:22:13.386Z,7.16
2017-11-10T20:24:39.691Z,7.07
2017-11-10T20:27:05.924Z,7.04
2017-11-10T20:29:32.158Z,7.00
2017-11-10T20:31:58.414Z,7.01
2017-11-10T20:34:24.646Z,6.92
2017-11-10T20:36:50.937Z,7.03
2017-11-10T20:39:17.189Z,7.06
2017-11-10T20:41:43.396Z,7.14
2017-11-10T20:44:10.756Z,7.12
2017-11-10T20:46:37.002Z,7.09
2017-11-10T20:49:03.226Z,7.20
2017-11-10T20:51:29.464Z,7.14
2017-11-10T20:53:55.741Z,7.05
2017-11-10T20:56:21.964Z,7.10
2017-11-10T20:58:48.188Z,7.10
2017-11-10T21:01:14.458Z,7.08
2017-11-10T21:03:40.707Z,7.05
2017-11-10T21:06:07.015Z,6.99
2017-11-10T21:08:33.282Z,7.08
2017-11-10T21:10:59.528Z,7.02
2017-11-10T21:13:25.778Z,6.94
2017-11-10T21:15:52.048Z,6.87
2017-11-10T21:18:18.271Z,6.85
2017-11-10T21:20:44.532Z,6.83
2017-11-10T21:23:10.836Z,6.93
2017-11-10T21:25:37.083Z,6.94
2017-11-10T21:28:03.309Z,6.91
2017-11-10T21:30:29.539Z,6.97
2017-11-10T21:32:55.777Z,6.92
2017-11-10T21:35:22.005Z,6.93
2017-11-10T21:37:48.413Z,6.91
2017-11-10T21:40:14.679Z,6.83
2017-11-10T21:42:40.905Z,6.68
2017-11-10T21:45:07.170Z,6.51
2017-11-10T21:47:33.406Z,6.42
2017-11-10T21:49:59.717Z,6.32
2017-11-10T21:52:25.977Z,6.23
2017-11-10T21:54:52.205Z,6.21
2017-11-10T21:57:18.422Z,6.12
2017-11-10T21:59:44.886Z,6.02
2017-11-10T22:02:11.097Z,5.88
2017-11-10T22:04:37.326Z,5.88
2017-11-10T22:07:03.575Z,5.90
2017-11-10T22:09:29.798Z,5.87
2017-11-10T22:11:56.018Z,5.83
2017-11-10T22:14:22.284Z,5.71
2017-11-10T22:16:48.505Z,5.61
2017-11-10T22:19:14.760Z,5.66
2017-11-10T22:21:41.032Z,5.70
2017-11-10T22:24:07.317Z,5.62
2017-11-10T22:26:33.543Z,5.53
2017-11-10T22:28:59.824Z,5.55
2017-11-10T22:31:26.055Z,5.64
2017-11-10T22:33:52.287Z,5.53
2017-11-10T22:36:18.563Z,5.47
2017-11-10T22:38:44.797Z,5.33
2017-11-10T22:41:11.131Z,5.55
2017-11-10T22:43:37.408Z,5.44
2017-11-10T22:46:03.633Z,5.29
2017-11-10T22:48:29.851Z,5.23
2017-11-10T22:50:56.104Z,5.19
2017-11-10T22:53:22.329Z,5.18
2017-11-10T22:55:48.575Z,5.14
2017-11-10T22:58:14.889Z,5.15
2017-11-10T23:00:41.149Z,5.08
2017-11-10T23:03:07.407Z,5.09
2017-11-10T23:05:33.728Z,5.12
2017-11-10T23:10:32.374Z,4.97
2017-11-10T23:12:58.639Z,4.96
2017-11-10T23:15:24.858Z,4.97
2017-11-10T23:17:51.083Z,4.98
2017-11-10T23:20:17.363Z,4.96
2017-11-10T23:22:43.593Z,4.97
2017-11-10T23:25:09.849Z,5.03
2017-11-10T23:27:36.158Z,4.99
2017-11-10T23:30:02.406Z,5.05
2017-11-10T23:32:28.637Z,5.08
2017-11-10T23:34:54.889Z,5.11
2017-11-10T23:37:21.114Z,5.30
2017-11-10T23:39:47.330Z,5.32
2017-11-10T23:42:13.614Z,5.37
2017-11-10T23:44:39.888Z,5.38
2017-11-10T23:47:06.118Z,5.38
2017-11-10T23:49:32.368Z,5.36
2017-11-10T23:51:58.595Z,5.38
2017-11-10T23:54:24.812Z,5.43
2017-11-10T23:56:51.251Z,5.50
2017-11-10T23:59:17.491Z,5.44
